Time;durP1;ratioP1;P1;durP2;ratioP2;P2;SDS_P1;SDS_P2;PMS_P1;PMS_P2;Temp;Humidity;BMP_temperature;BMP_pressure;BME280_temperature;BME280_humidity;BME280_pressure;Samples;Min_cycle;Max_cycle;Signal;HPM_P1;HPM_P2
2024/02/01 00:01:29;;;;;;;4.60;4.20;;;4.40;99.90;;;-141.84;73.40;18962.38;4977865;28;20509;-56
2024/02/01 00:03:59;;;;;;;5.20;4.33;;;4.50;99.90;;;-141.84;74.17;19145.25;4972966;28;20244;-52
2024/02/01 00:06:27;;;;;;;4.67;4.17;;;4.60;99.90;;;-141.84;73.70;18994.88;4975160;28;20377;-53
2024/02/01 00:08:56;;;;;;;4.80;4.17;;;4.70;99.90;;;-141.84;73.38;18998.94;4972821;28;20617;-53
2024/02/01 00:11:24;;;;;;;4.53;4.13;;;4.70;99.90;;;-141.84;73.87;19120.88;4972961;28;20245;-52
2024/02/01 00:13:52;;;;;;;5.20;4.07;;;4.80;99.90;;;-141.84;72.37;18797.78;4983236;28;20318;-52
2024/02/01 00:16:21;;;;;;;4.60;4.10;;;4.80;99.90;;;-141.84;72.27;18842.50;4982124;28;20240;-53
2024/02/01 00:18:50;;;;;;;4.90;4.03;;;4.80;99.90;;;-141.84;72.94;18860.78;4981934;28;20257;-54
2024/02/01 00:21:19;;;;;;;4.90;4.17;;;4.90;99.90;;;-141.84;72.85;18872.97;4981991;28;20670;-53
2024/02/01 00:23:48;;;;;;;5.07;4.57;;;4.80;99.90;;;-141.84;73.42;18956.28;4983969;28;20755;-54
2024/02/01 00:26:16;;;;;;;5.10;4.60;;;4.70;99.90;;;-141.84;74.17;19153.38;4982432;28;20293;-52
2024/02/01 00:28:45;;;;;;;6.17;4.53;;;4.70;99.90;;;-141.84;73.92;19116.81;4992893;28;20256;-53
2024/02/01 00:31:13;;;;;;;4.73;4.23;;;4.70;99.90;;;-141.84;72.98;18911.56;4987482;28;20257;-54
2024/02/01 00:33:41;;;;;;;5.10;4.60;;;4.70;99.90;;;-141.84;73.94;19049.75;4985272;28;20238;-54
2024/02/01 00:36:10;;;;;;;4.80;4.20;;;4.70;99.90;;;-141.84;74.04;19104.59;4936353;28;20204;-50
2024/02/01 00:38:40;;;;;;;5.80;4.60;;;4.60;99.90;;;-141.84;74.18;19126.97;4983275;28;20225;-52
2024/02/01 00:41:08;;;;;;;6.37;4.73;;;4.70;99.90;;;-141.84;74.82;19322.03;4981794;28;20284;-55
2024/02/01 00:43:36;;;;;;;5.43;4.73;;;4.70;99.90;;;-141.84;75.38;19712.22;4982214;28;20242;-50
2024/02/01 00:46:05;;;;;;;4.83;4.43;;;4.60;99.90;;;-141.84;74.24;19248.88;4983913;28;20236;-53
2024/02/01 00:48:33;;;;;;;6.27;4.80;;;4.70;99.90;;;-141.84;74.96;19401.28;4981094;28;20313;-49
2024/02/01 00:51:02;;;;;;;4.73;4.27;;;4.70;99.90;;;-141.84;74.50;19265.13;4981777;28;20218;-53
2024/02/01 00:53:30;;;;;;;5.27;4.60;;;4.70;99.90;;;-141.84;75.49;19649.22;4983285;28;20211;-52
2024/02/01 00:56:00;;;;;;;5.10;4.60;;;4.70;99.90;;;-141.84;75.49;19742.72;4983718;28;20249;-52
2024/02/01 00:58:29;;;;;;;5.90;4.80;;;4.70;99.90;;;-141.84;73.42;19017.25;4981530;28;20693;-53
2024/02/01 01:00:57;;;;;;;6.33;4.80;;;4.80;99.90;;;-141.84;74.74;19332.19;4984956;28;20223;-53
2024/02/01 01:03:25;;;;;;;5.37;4.33;;;4.80;99.90;;;-141.84;76.15;20134.97;4986761;28;20459;-53
2024/02/01 01:05:54;;;;;;;5.00;4.53;;;4.80;99.90;;;-141.84;74.20;19185.88;4990893;28;20230;-53
2024/02/01 01:08:22;;;;;;;5.70;4.90;;;4.80;99.90;;;-141.84;74.39;19234.66;4985305;28;20234;-51
2024/02/01 01:10:51;;;;;;;5.73;5.00;;;4.80;99.90;;;-141.84;75.44;19626.88;4984660;28;20226;-52
2024/02/01 01:13:20;;;;;;;6.20;5.00;;;4.80;99.90;;;-141.84;75.89;19996.75;4991748;28;20242;-52
2024/02/01 01:15:48;;;;;;;7.67;5.13;;;4.80;99.90;;;-141.84;74.13;19206.22;4982370;28;20274;-50
2024/02/01 01:18:17;;;;;;;5.10;4.60;;;4.80;99.90;;;-141.84;73.24;18992.84;4981732;28;20203;-53
2024/02/01 01:20:45;;;;;;;4.93;4.40;;;4.90;99.90;;;-141.84;74.38;19309.84;4984808;28;20211;-54
2024/02/01 01:23:13;;;;;;;5.57;5.07;;;4.90;99.90;;;-141.84;75.30;19651.25;4984830;28;20229;-51
2024/02/01 01:25:42;;;;;;;5.53;4.50;;;4.90;99.90;;;-141.84;74.47;19281.41;4979225;28;20728;-55
2024/02/01 01:28:10;;;;;;;5.87;5.00;;;5.00;99.90;;;-141.84;73.60;19084.28;4986686;28;20256;-54
2024/02/01 01:30:40;;;;;;;5.30;4.80;;;5.00;99.90;;;-141.84;74.93;19472.41;4986727;28;20451;-54
2024/02/01 01:33:08;;;;;;;5.33;4.70;;;4.90;99.90;;;-141.84;73.95;19147.28;4986437;28;20251;-52
2024/02/01 01:35:37;;;;;;;4.93;4.47;;;4.90;99.90;;;-141.84;72.58;18960.34;4976405;28;20217;-52
2024/02/01 01:38:05;;;;;;;4.90;4.40;;;5.00;99.90;;;-141.84;72.94;18982.69;4985557;28;20226;-53
2024/02/01 01:40:33;;;;;;;5.00;4.50;;;5.10;99.90;;;-141.84;71.99;18889.22;4994489;28;20631;-54
2024/02/01 01:43:02;;;;;;;4.13;3.47;;;5.10;99.90;;;-141.84;71.00;18795.75;4986503;28;20220;-52
2024/02/01 01:45:31;;;;;;;4.47;3.17;;;5.30;99.90;;;-141.84;71.05;18740.91;4946380;28;20235;-50
2024/02/01 01:48:01;;;;;;;4.57;3.70;;;5.30;99.90;;;-141.84;72.11;18868.91;4986510;28;20215;-52
2024/02/01 01:50:29;;;;;;;3.30;3.00;;;5.30;99.90;;;-141.84;72.00;18887.19;4986902;28;20249;-54
2024/02/01 01:53:00;;;;;;;4.00;3.50;;;5.40;99.90;;;-141.84;70.48;18724.66;4980208;28;20235;-53
2024/02/01 01:55:30;;;;;;;3.57;3.00;;;5.40;99.90;;;-141.84;70.05;18694.16;4989796;28;20239;-54
2024/02/01 01:57:59;;;;;;;3.27;2.80;;;5.50;99.90;;;-141.84;69.20;18669.78;4990512;28;20258;-52
2024/02/01 02:00:27;;;;;;;5.47;3.23;;;5.40;99.90;;;-141.84;69.17;18688.06;4990603;28;20277;-54
2024/02/01 02:02:56;;;;;;;4.10;2.97;;;5.60;99.90;;;-141.84;69.13;18704.31;4990843;28;20199;-52
2024/02/01 02:05:28;;;;;;;4.03;2.90;;;5.70;99.90;;;-141.84;68.50;18653.53;4993078;28;20519;-53
2024/02/01 02:07:57;;;;;;;3.70;2.83;;;5.70;99.90;;;-141.84;68.86;18641.34;4990201;28;20254;-51
2024/02/01 02:10:25;;;;;;;3.23;2.83;;;5.70;99.90;;;-141.84;68.49;18671.81;4989405;28;20226;-49
2024/02/01 02:12:53;;;;;;;3.40;3.10;;;5.80;99.90;;;-141.84;67.60;18631.19;4982805;28;20297;-54
2024/02/01 02:15:22;;;;;;;3.17;2.60;;;5.80;99.90;;;-141.84;66.75;18643.38;4987132;28;20269;-48
2024/02/01 02:17:50;;;;;;;3.77;2.93;;;5.90;99.90;;;-141.84;68.06;18621.03;4987102;28;20255;-52
2024/02/01 02:20:21;;;;;;;3.50;2.97;;;5.80;99.90;;;-141.84;67.94;18661.66;4983124;28;20679;-50
2024/02/01 02:22:52;;;;;;;3.40;2.80;;;5.90;99.90;;;-141.84;68.01;18657.59;4983800;28;20230;-49
2024/02/01 02:25:21;;;;;;;3.30;3.00;;;5.90;99.90;;;-141.84;67.88;18653.53;4987976;28;20250;-54
2024/02/01 02:27:50;;;;;;;4.00;2.97;;;5.90;99.90;;;-141.84;67.18;18655.56;4986118;28;20239;-49
2024/02/01 02:30:18;;;;;;;3.63;3.00;;;5.90;99.90;;;-141.84;66.77;18669.78;4972726;28;20301;-48
2024/02/01 02:32:47;;;;;;;3.90;3.10;;;6.00;99.90;;;-141.84;66.71;18633.22;4986343;28;20199;-48
2024/02/01 02:35:16;;;;;;;4.07;3.10;;;6.00;99.90;;;-141.84;67.41;18688.06;4985607;28;20237;-51
2024/02/01 02:37:46;;;;;;;3.33;2.70;;;6.00;99.90;;;-141.84;67.61;18679.94;4982368;28;20219;-54
2024/02/01 02:40:17;;;;;;;5.30;3.00;;;6.00;99.90;;;-141.84;67.54;18661.66;4983681;28;20290;-56
2024/02/01 02:42:46;;;;;;;5.33;3.00;;;6.10;99.90;;;-141.84;67.35;18661.66;4991948;28;20256;-51
2024/02/01 02:45:15;;;;;;;4.57;2.90;;;6.00;99.90;;;-141.84;66.93;18651.50;4986533;28;20641;-50
2024/02/01 02:47:46;;;;;;;4.93;2.80;;;6.00;99.90;;;-141.84;67.05;18635.25;4983158;28;20228;-51
2024/02/01 02:50:15;;;;;;;4.40;3.03;;;6.00;99.90;;;-141.84;66.75;18675.88;4983795;28;20605;-49
2024/02/01 02:52:45;;;;;;;5.87;3.20;;;6.00;99.90;;;-141.84;67.60;18659.63;4979674;28;20228;-51
2024/02/01 02:55:14;;;;;;;3.93;3.40;;;6.00;99.90;;;-141.84;67.05;18675.88;4979430;28;20307;-53
2024/02/01 02:57:43;;;;;;;5.50;3.93;;;6.10;99.90;;;-141.84;66.67;18651.50;4979036;28;20714;-52
2024/02/01 03:00:18;;;;;;;5.13;3.43;;;6.10;99.90;;;-141.84;67.19;18633.22;4979211;28;20279;-52
2024/02/01 03:02:48;;;;;;;5.00;3.47;;;6.10;99.90;;;-141.84;67.90;18708.41;4981837;28;20191;-50
2024/02/01 03:05:18;;;;;;;3.90;3.27;;;6.10;99.90;;;-141.84;69.36;18812.00;4982482;28;20290;-53
2024/02/01 03:07:47;;;;;;;3.93;3.53;;;6.20;99.90;;;-141.84;71.48;18923.78;4971708;28;20275;-53
2024/02/01 03:10:17;;;;;;;4.70;3.60;;;6.10;99.90;;;-141.84;73.35;19281.41;4964948;28;20235;-50
2024/02/01 03:12:47;;;;;;;5.77;3.77;;;6.00;99.90;;;-141.84;75.40;20187.81;4985068;28;20359;-53
2024/02/01 03:15:16;;;;;;;5.97;3.67;;;6.00;99.90;;;-141.84;75.69;20722.41;4981177;28;20188;-49
2024/02/01 03:17:44;;;;;;;4.63;4.13;;;6.00;99.90;;;-141.84;77.95;25014.03;4979640;28;20290;-52
2024/02/01 03:20:22;;;;;;;5.00;4.43;;;6.00;99.90;;;-141.84;80.44;39416.25;4979115;28;20307;-54
2024/02/01 03:22:54;;;;;;;5.67;3.90;;;5.90;99.90;;;-141.84;82.51;54402.44;4987381;28;20587;-54
2024/02/01 03:25:29;;;;;;;5.43;3.87;;;5.80;99.90;;;-141.84;82.64;55714.84;4978708;28;20228;-50
2024/02/01 03:28:01;;;;;;;6.50;4.40;;;5.80;99.90;;;-141.84;85.28;68599.69;4980444;28;20235;-52
2024/02/01 03:30:32;;;;;;;6.13;4.63;;;5.80;99.90;;;-141.84;87.20;76772.88;4982441;28;20234;-53
2024/02/01 03:33:02;;;;;;;5.97;4.60;;;5.70;99.90;;;-141.84;89.54;85491.75;4982457;28;20582;-53
2024/02/01 03:35:32;;;;;;;6.17;5.00;;;5.60;99.90;;;-141.84;91.50;91314.81;4971931;28;20310;-53
2024/02/01 03:38:02;;;;;;;5.57;4.53;;;5.60;99.90;;;-141.84;92.67;95024.81;4980747;28;20227;-49
2024/02/01 03:40:31;;;;;;;5.47;4.83;;;5.60;99.90;;;-141.84;95.52;101392.69;4980014;28;20696;-52
2024/02/01 03:43:01;;;;;;;6.20;4.50;;;5.50;99.90;;;-141.84;96.73;104314.66;4978886;28;20224;-52
2024/02/01 03:45:29;;;;;;;5.17;4.67;;;5.40;99.90;;;-141.84;98.07;107504.66;4974229;28;20235;-52
2024/02/01 03:47:57;;;;;;;10.33;4.90;;;5.40;99.90;;;-141.84;99.93;110431.03;4980037;28;20220;-51
2024/02/01 03:50:26;;;;;;;7.20;4.60;;;5.40;99.90;;;-141.84;100.00;112028.13;4981346;28;20225;-51
2024/02/01 03:52:54;;;;;;;6.83;4.83;;;5.30;99.90;;;-141.84;100.00;115224.16;4981645;28;20257;-54
2024/02/01 03:55:23;;;;;;;7.23;4.63;;;5.30;99.90;;;-141.84;100.00;117089.69;4978940;28;20306;-53
2024/02/01 03:57:52;;;;;;;5.47;4.40;;;5.30;99.90;;;-141.84;100.00;117622.84;4978651;28;20224;-53
2024/02/01 04:00:29;;;;;;;7.93;5.10;;;5.30;99.90;;;-141.84;100.00;117622.84;4979321;28;20246;-51
2024/02/01 04:02:59;;;;;;;7.87;5.10;;;5.30;99.90;;;-141.84;100.00;118422.72;4972037;28;20188;-52
2024/02/01 04:05:28;;;;;;;6.67;5.10;;;5.30;99.90;;;-141.84;100.00;118956.03;4980498;28;20589;-54
2024/02/01 04:07:57;;;;;;;5.90;5.00;;;5.30;99.90;;;-141.84;100.00;119222.75;4980179;28;20644;-48
2024/02/01 04:10:26;;;;;;;7.57;4.60;;;5.30;99.90;;;-141.84;100.00;119224.81;4977570;28;20841;-55
2024/02/01 04:12:54;;;;;;;7.33;5.17;;;5.30;99.90;;;-141.84;100.00;119224.81;4974596;28;20237;-50
2024/02/01 04:15:24;;;;;;;5.77;4.57;;;5.30;99.90;;;-141.84;100.00;119224.81;4971682;28;20313;-53
2024/02/01 04:17:52;;;;;;;6.03;5.20;;;5.40;99.90;;;-141.84;100.00;119224.81;4981493;28;20266;-48
2024/02/01 04:20:20;;;;;;;5.70;5.13;;;5.40;99.90;;;-141.84;100.00;119224.81;4980593;28;20266;-52
2024/02/01 04:22:53;;;;;;;6.53;4.93;;;5.40;99.90;;;-141.84;100.00;119224.81;4978754;28;20725;-53
2024/02/01 04:25:23;;;;;;;5.40;4.70;;;5.40;99.90;;;-141.84;100.00;119224.81;4976645;28;20229;-53
2024/02/01 04:27:51;;;;;;;8.10;5.20;;;5.40;99.90;;;-141.84;100.00;119224.81;4979745;28;20716;-51
2024/02/01 04:30:23;;;;;;;8.87;5.50;;;5.40;99.90;;;-141.84;100.00;119224.81;4973762;28;20696;-50
2024/02/01 04:32:54;;;;;;;5.73;5.07;;;5.40;99.90;;;-141.84;100.00;119224.81;4980877;28;20196;-54
2024/02/01 04:35:23;;;;;;;8.67;5.70;;;5.40;99.90;;;-141.84;100.00;119224.81;4979702;28;20238;-52
2024/02/01 04:37:52;;;;;;;6.63;5.40;;;5.40;99.90;;;-141.84;100.00;119224.81;4972400;28;20698;-49
2024/02/01 04:40:22;;;;;;;6.67;5.03;;;5.40;99.90;;;-141.84;100.00;119224.81;4985135;28;20254;-50
2024/02/01 04:42:52;;;;;;;7.00;5.67;;;5.40;99.90;;;-141.84;100.00;119224.81;4975732;28;20231;-54
2024/02/01 04:45:20;;;;;;;7.13;5.30;;;5.50;99.90;;;-141.84;100.00;119224.81;4976602;28;20672;-54
2024/02/01 04:47:48;;;;;;;8.67;5.50;;;5.40;99.90;;;-141.84;100.00;119224.81;4981326;28;20261;-51
2024/02/01 04:50:19;;;;;;;7.40;5.50;;;5.50;99.90;;;-141.84;100.00;119224.81;4977163;28;20316;-50
2024/02/01 04:52:49;;;;;;;7.03;6.33;;;5.40;99.90;;;-141.84;100.00;119224.81;4982003;28;20235;-51
2024/02/01 04:55:17;;;;;;;6.47;5.40;;;5.50;99.90;;;-141.84;100.00;119224.81;4966025;28;20254;-51
2024/02/01 04:57:46;;;;;;;6.13;5.30;;;5.50;99.90;;;-141.84;100.00;119224.81;4984311;28;20265;-50
2024/02/01 05:00:17;;;;;;;6.50;5.10;;;5.60;99.90;;;-141.84;100.00;119224.81;4984158;28;20257;-54
2024/02/01 05:02:47;;;;;;;7.50;5.20;;;5.60;99.90;;;-141.84;100.00;119224.81;4976294;28;20219;-51
2024/02/01 05:05:18;;;;;;;9.27;5.30;;;5.60;99.90;;;-141.84;100.00;119224.81;4984330;28;20223;-53
2024/02/01 05:07:50;;;;;;;6.33;5.20;;;5.70;99.90;;;-141.84;100.00;119224.81;4981666;28;20255;-53
2024/02/01 05:10:18;;;;;;;7.17;4.97;;;5.70;99.90;;;-141.84;100.00;119224.81;4984618;28;20562;-50
2024/02/01 05:12:47;;;;;;;7.83;5.13;;;5.70;99.90;;;-141.84;100.00;119224.81;4984836;28;20306;-52
2024/02/01 05:15:18;;;;;;;6.03;5.03;;;5.70;99.90;;;-141.84;100.00;119224.81;4984932;28;20199;-51
2024/02/01 05:17:46;;;;;;;7.47;5.10;;;5.70;99.90;;;-141.84;100.00;119224.81;4984453;28;20228;-53
2024/02/01 05:20:15;;;;;;;7.90;5.70;;;5.70;99.90;;;-141.84;100.00;119224.81;4983221;28;20440;-54
2024/02/01 05:22:44;;;;;;;7.30;5.70;;;5.70;99.90;;;-141.84;100.00;119224.81;4985217;28;20251;-56
2024/02/01 05:25:15;;;;;;;6.70;5.40;;;5.80;99.90;;;-141.84;100.00;119224.81;4980555;28;20220;-56
2024/02/01 05:27:50;;;;;;;7.60;5.80;;;5.80;99.90;;;-141.84;100.00;119224.81;4984322;28;20244;-52
2024/02/01 05:30:22;;;;;;;6.27;5.30;;;5.80;99.90;;;-141.84;100.00;119224.81;4966049;28;20302;-54
2024/02/01 05:32:52;;;;;;;5.93;5.20;;;5.80;99.90;;;-141.84;100.00;119224.81;4983023;28;20230;-50
2024/02/01 05:35:28;;;;;;;8.13;5.30;;;5.90;99.90;;;-141.84;100.00;119224.81;4985502;28;20580;-53
2024/02/01 05:38:00;;;;;;;6.20;5.50;;;5.80;99.90;;;-141.84;100.00;119224.81;4977750;28;20310;-49
2024/02/01 05:40:31;;;;;;;7.07;5.07;;;5.80;99.90;;;-141.84;100.00;119224.81;4988934;28;20317;-48
2024/02/01 05:43:00;;;;;;;6.43;4.67;;;5.80;99.90;;;-141.84;100.00;119224.81;4981944;28;20458;-49
2024/02/01 05:45:28;;;;;;;7.70;5.43;;;5.90;99.90;;;-141.84;100.00;119224.81;4984301;28;20259;-50
2024/02/01 05:47:58;;;;;;;8.07;5.50;;;5.80;99.90;;;-141.84;100.00;119224.81;4981098;28;20215;-49
2024/02/01 05:50:27;;;;;;;6.30;5.50;;;5.80;99.90;;;-141.84;100.00;119224.81;4981171;28;20219;-50
2024/02/01 05:52:57;;;;;;;6.80;5.40;;;5.80;99.90;;;-141.84;100.00;119224.81;4980449;28;20262;-52
2024/02/01 05:55:26;;;;;;;7.17;5.20;;;5.90;99.90;;;-141.84;100.00;119224.81;4973201;28;20245;-51
2024/02/01 05:57:54;;;;;;;6.07;5.40;;;5.90;99.90;;;-141.84;100.00;119224.81;4980416;28;20706;-51
2024/02/01 06:00:23;;;;;;;6.47;5.40;;;5.90;99.90;;;-141.84;100.00;119224.81;4980787;28;20332;-53
2024/02/01 06:02:52;;;;;;;5.83;5.23;;;5.90;99.90;;;-141.84;100.00;119224.81;4982870;28;20250;-52
2024/02/01 06:05:21;;;;;;;7.73;5.67;;;5.90;99.90;;;-141.84;100.00;119224.81;4982584;28;20234;-51
2024/02/01 06:07:49;;;;;;;6.97;5.50;;;5.90;99.90;;;-141.84;100.00;119224.81;4984535;28;20227;-49
2024/02/01 06:10:19;;;;;;;8.43;5.63;;;5.90;99.90;;;-141.84;100.00;119224.81;4980124;28;20219;-54
2024/02/01 06:12:47;;;;;;;7.40;6.60;;;5.90;99.90;;;-141.84;100.00;119224.81;4982947;28;20326;-51
2024/02/01 06:15:16;;;;;;;6.73;5.60;;;5.90;99.90;;;-141.84;100.00;119224.81;4981373;28;20223;-51
2024/02/01 06:17:44;;;;;;;7.97;6.33;;;5.90;99.90;;;-141.84;100.00;119224.81;4980472;28;20236;-54
2024/02/01 06:20:13;;;;;;;7.40;6.27;;;5.90;99.90;;;-141.84;100.00;119224.81;4980337;28;20286;-54
2024/02/01 06:22:41;;;;;;;6.43;5.53;;;6.00;99.90;;;-141.84;100.00;119224.81;4980265;28;20243;-50
2024/02/01 06:25:11;;;;;;;8.77;5.77;;;6.00;99.90;;;-141.84;100.00;119224.81;4981657;28;20228;-50
2024/02/01 06:27:42;;;;;;;6.40;5.70;;;6.00;99.90;;;-141.84;100.00;119224.81;4983565;28;20230;-49
2024/02/01 06:30:12;;;;;;;7.70;5.83;;;6.10;99.90;;;-141.84;100.00;119224.81;4983421;28;20204;-53
2024/02/01 06:32:41;;;;;;;7.50;6.13;;;6.10;99.90;;;-141.84;100.00;119224.81;4984189;28;20191;-52
2024/02/01 06:35:16;;;;;;;7.53;6.47;;;6.10;99.90;;;-141.84;100.00;119224.81;4975369;28;20231;-51
2024/02/01 06:37:52;;;;;;;7.73;6.57;;;6.10;99.90;;;-141.84;100.00;119224.81;4980950;28;20490;-54
2024/02/01 06:40:48;;;;;;;9.27;7.10;;;6.20;99.90;;;-141.84;100.00;119224.81;4970743;28;20337;-53
2024/02/01 06:43:31;;;;;;;9.27;7.13;;;6.10;99.90;;;-141.84;100.00;119224.81;4980776;28;20223;-49
2024/02/01 06:46:08;;;;;;;7.67;6.97;;;6.20;99.90;;;-141.84;100.00;119224.81;4974972;28;20797;-53
2024/02/01 06:48:44;;;;;;;8.77;7.33;;;6.20;99.90;;;-141.84;100.00;119224.81;4980859;28;20747;-52
2024/02/01 06:51:24;;;;;;;9.13;8.13;;;6.20;99.90;;;-141.84;100.00;119224.81;4938170;28;20205;-55
2024/02/01 06:53:56;;;;;;;9.40;8.27;;;6.20;99.90;;;-141.84;100.00;119224.81;4975283;28;20195;-52
2024/02/01 06:56:48;;;;;;;9.03;7.20;;;6.30;99.90;;;-141.84;100.00;119224.81;4972146;28;20200;-53
2024/02/01 06:59:31;;;;;;;7.83;7.03;;;6.30;99.90;;;-141.84;100.00;119224.81;4962809;28;20310;-53
2024/02/01 07:02:06;;;;;;;7.00;5.90;;;6.30;99.90;;;-141.84;100.00;119224.81;4987767;28;20661;-52
2024/02/01 07:04:50;;;;;;;7.73;5.53;;;6.30;99.90;;;-141.84;100.00;119224.81;4952728;28;20226;-51
2024/02/01 07:07:18;;;;;;;6.73;5.60;;;6.40;99.90;;;-141.84;100.00;119222.75;4979494;28;20266;-51
2024/02/01 07:09:57;;;;;;;5.70;5.10;;;6.40;99.90;;;-141.84;100.00;117889.44;4971697;28;20683;-52
2024/02/01 07:12:42;;;;;;;6.17;5.40;;;6.40;99.90;;;-141.84;100.00;118422.72;4981398;28;20318;-49
2024/02/01 07:15:30;;;;;;;5.67;4.50;;;6.50;99.90;;;-141.84;100.00;118156.06;4978985;28;20191;-50
2024/02/01 07:18:02;;;;;;;6.63;5.03;;;6.50;99.90;;;-141.84;100.00;119222.75;4979912;28;20224;-53
2024/02/01 07:20:35;;;;;;;5.67;4.87;;;6.50;99.90;;;-141.84;100.00;119224.81;4982168;28;20224;-52
2024/02/01 07:23:33;;;;;;;5.00;4.50;;;6.50;99.90;;;-141.84;100.00;119222.75;4973843;28;20604;-52
2024/02/01 07:26:02;;;;;;;5.37;4.50;;;6.50;99.90;;;-141.84;100.00;119222.75;4976524;28;20279;-53
2024/02/01 07:59:29;;;;;;;7.17;5.33;;;6.60;99.90;;;-141.84;100.00;119224.81;4878923;29;20223;-48
2024/02/01 08:02:13;;;;;;;6.17;5.07;;;6.70;99.90;;;-141.84;100.00;119224.81;4937309;28;20227;-53
2024/02/01 08:07:48;;;;;;;5.27;4.37;;;6.70;99.90;;;-141.84;100.00;119222.75;4973475;28;20681;-52
2024/02/01 08:10:18;;;;;;;6.63;4.80;;;6.70;99.90;;;-141.84;100.00;118956.03;4974057;28;20227;-54
2024/02/01 08:12:49;;;;;;;5.37;4.50;;;6.80;99.90;;;-141.84;100.00;117622.84;4971582;28;20238;-55
2024/02/01 08:15:19;;;;;;;4.73;4.23;;;6.90;99.90;;;-141.84;100.00;115224.16;4971433;28;20200;-49
2024/02/01 08:17:49;;;;;;;6.27;4.80;;;6.90;99.90;;;-141.84;100.00;114424.91;4979340;28;20199;-50
2024/02/01 08:20:21;;;;;;;6.07;4.57;;;7.00;99.90;;;-141.84;98.51;112294.34;4970684;28;20570;-54
2024/02/01 08:22:50;;;;;;;6.03;4.93;;;7.00;99.90;;;-141.84;100.00;113625.81;4980482;28;20227;-55
2024/02/01 08:25:18;;;;;;;5.20;4.60;;;7.00;99.90;;;-141.84;99.58;113359.50;4980578;28;20278;-52
2024/02/01 08:27:52;;;;;;;6.90;4.70;;;7.00;99.90;;;-141.84;100.00;115224.16;4984064;28;20323;-52
2024/02/01 08:30:22;;;;;;;7.63;4.80;;;7.10;99.90;;;-141.84;98.79;112826.88;4984522;28;20261;-55
2024/02/01 08:32:50;;;;;;;5.00;4.50;;;7.10;99.90;;;-141.84;99.48;113093.19;4984466;28;20219;-50
2024/02/01 08:35:20;;;;;;;6.30;5.07;;;7.10;99.90;;;-141.84;96.92;109898.81;4985646;28;20235;-49
2024/02/01 08:37:48;;;;;;;4.80;4.33;;;7.30;99.90;;;-141.84;97.79;110697.16;4984424;28;20247;-54
2024/02/01 08:40:17;;;;;;;4.90;4.40;;;7.30;99.90;;;-141.84;95.08;107238.72;4976319;28;20299;-51
2024/02/01 08:42:48;;;;;;;4.50;4.10;;;7.40;99.90;;;-141.84;94.56;105111.94;4982783;28;20712;-55
2024/02/01 08:45:18;;;;;;;5.07;4.27;;;7.50;99.90;;;-141.84;94.27;105111.94;4956460;28;20745;-55
2024/02/01 08:47:47;;;;;;;5.17;4.37;;;7.60;99.90;;;-141.84;91.89;100330.69;4978637;28;20200;-56
2024/02/01 08:50:16;;;;;;;4.30;3.90;;;7.70;99.90;;;-141.84;89.80;93964.47;4976139;28;20251;-54
2024/02/01 08:52:46;;;;;;;4.63;3.90;;;7.80;99.90;;;-141.84;90.33;95289.94;4981624;28;20283;-52
2024/02/01 08:55:16;;;;;;;4.10;3.70;;;7.80;99.90;;;-141.84;90.60;96350.63;4969029;28;20253;-50
2024/02/01 08:57:46;;;;;;;4.77;4.03;;;7.80;99.90;;;-141.84;89.83;94494.59;4981459;28;20263;-55
2024/02/01 09:00:25;;;;;;;4.13;3.80;;;7.90;99.90;;;-141.84;89.60;92639.44;4961662;28;20287;-53
2024/02/01 09:03:04;;;;;;;4.80;4.17;;;7.90;99.90;;;-141.84;92.60;100330.69;4981093;28;20199;-54
2024/02/01 09:05:35;;;;;;;3.80;3.50;;;7.80;99.90;;;-141.84;93.25;102720.59;4969548;28;20224;-51
2024/02/01 09:08:08;;;;;;;4.63;4.10;;;7.80;99.90;;;-141.84;92.76;101658.25;4983922;28;20215;-53
2024/02/01 09:10:37;;;;;;;4.60;4.20;;;7.80;99.90;;;-141.84;93.01;102986.25;4984014;28;20615;-51
2024/02/01 09:13:08;;;;;;;4.10;3.70;;;7.80;99.90;;;-141.84;93.14;102720.59;4973304;28;20739;-50
2024/02/01 09:15:36;;;;;;;4.30;3.83;;;8.00;99.90;;;-141.84;91.89;101658.25;4981312;28;20281;-49
2024/02/01 09:18:05;;;;;;;4.60;3.67;;;8.30;99.90;;;-141.84;84.73;79412.97;4982680;28;20204;-52
2024/02/01 09:20:33;;;;;;;3.83;3.50;;;8.60;99.90;;;-141.84;80.20;56239.94;4981904;28;20203;-54
2024/02/01 09:23:02;;;;;;;3.90;3.33;;;8.80;99.90;;;-141.84;77.96;37231.31;4977041;28;20219;-54
2024/02/01 09:25:31;;;;;;;3.83;3.43;;;8.90;99.90;;;-141.84;78.53;40090.38;4981651;28;20299;-55
2024/02/01 09:28:00;;;;;;;4.63;4.00;;;8.90;99.90;;;-141.84;80.61;52828.09;4960688;28;20225;-54
2024/02/01 09:30:31;;;;;;;4.20;3.20;;;8.80;99.90;;;-141.84;80.86;58603.75;4954749;28;20224;-56
2024/02/01 09:32:59;;;;;;;3.40;3.10;;;8.80;99.90;;;-141.84;79.96;50729.94;4964838;28;20212;-54
2024/02/01 09:35:28;;;;;;;3.20;2.90;;;8.80;99.90;;;-141.84;80.16;50729.94;4964720;28;20239;-54
2024/02/01 09:37:56;;;;;;;3.00;2.80;;;8.60;99.90;;;-141.84;82.24;62283.53;4963319;28;20306;-55
2024/02/01 09:40:26;;;;;;;3.63;2.93;;;8.50;99.90;;;-141.84;84.39;74398.31;4956448;28;20726;-49
2024/02/01 09:42:55;;;;;;;3.80;3.07;;;8.40;99.90;;;-141.84;82.80;67809.63;4959511;28;20307;-52
2024/02/01 09:45:29;;;;;;;4.47;3.20;;;8.40;99.90;;;-141.84;80.69;55714.84;4961430;28;20265;-52
2024/02/01 09:47:58;;;;;;;3.60;3.17;;;8.60;99.90;;;-141.84;77.72;34557.97;4963736;28;20713;-48
2024/02/01 09:50:26;;;;;;;3.23;2.77;;;8.70;99.90;;;-141.84;75.06;22361.22;4963886;28;20675;-55
2024/02/01 09:52:56;;;;;;;3.53;3.23;;;8.80;99.90;;;-141.84;75.54;22855.44;4962025;28;20347;-52
2024/02/01 09:55:25;;;;;;;3.00;2.63;;;8.90;99.90;;;-141.84;75.75;23331.41;4960730;28;20315;-52
2024/02/01 09:57:55;;;;;;;4.60;3.10;;;8.90;99.90;;;-141.84;75.49;22538.16;4961175;28;20228;-50
2024/02/01 10:00:25;;;;;;;3.47;2.50;;;8.80;99.90;;;-141.84;75.45;22507.66;4964108;28;20278;-55
2024/02/01 10:02:59;;;;;;;2.90;2.60;;;8.80;99.90;;;-141.84;73.82;20387.00;4964259;28;20188;-55
2024/02/01 10:05:28;;;;;;;2.33;2.13;;;8.80;99.90;;;-141.84;74.57;20903.34;4981724;28;20211;-56
2024/02/01 10:07:57;;;;;;;4.03;2.40;;;8.80;99.90;;;-141.84;75.95;23874.56;4972517;28;20246;-52
2024/02/01 10:10:26;;;;;;;2.73;2.53;;;8.80;99.90;;;-141.84;74.53;20911.47;4981392;28;20231;-51
2024/02/01 10:12:58;;;;;;;3.20;2.30;;;8.90;99.90;;;-141.84;71.92;19248.88;4975208;28;20244;-52
2024/02/01 10:15:30;;;;;;;2.97;2.30;;;8.90;99.90;;;-141.84;70.07;18931.91;4986704;28;20227;-54
2024/02/01 10:17:59;;;;;;;2.40;1.93;;;8.90;99.90;;;-141.84;68.80;18787.63;4983672;28;20195;-53
2024/02/01 10:20:38;;;;;;;2.20;2.00;;;8.90;99.90;;;-141.84;67.70;18744.97;4971079;28;20302;-53
2024/02/01 10:23:09;;;;;;;2.90;2.13;;;9.00;99.90;;;-141.84;66.75;18696.19;4977377;28;20227;-52
2024/02/01 10:25:42;;;;;;;2.20;1.90;;;9.00;99.90;;;-141.84;67.14;18747.00;4978469;28;20870;-49
2024/02/01 10:28:14;;;;;;;2.37;2.03;;;9.10;99.90;;;-141.84;64.55;18686.03;5000930;28;20315;-53
2024/02/01 10:30:45;;;;;;;6.23;2.17;;;9.20;99.90;;;-141.84;63.88;18681.97;5000209;28;20239;-51
2024/02/01 10:33:15;;;;;;;2.27;1.67;;;9.20;99.90;;;-141.84;61.81;18667.75;5002017;28;20195;-54
2024/02/01 10:35:48;;;;;;;3.53;1.77;;;9.20;99.90;;;-141.84;60.07;18673.84;4997187;28;20207;-53
2024/02/01 10:38:23;;;;;;;3.83;1.77;;;9.20;99.90;;;-141.84;59.46;18679.94;4993929;28;20328;-51
2024/02/01 10:41:01;;;;;;;4.63;1.60;;;9.20;99.90;;;-141.84;60.49;18649.47;4985701;28;20421;-55
2024/02/01 10:43:34;;;;;;;2.80;1.50;;;9.00;99.90;;;-141.84;62.16;18686.03;4999150;28;20618;-54
2024/02/01 10:46:07;;;;;;;4.50;1.70;;;8.80;99.90;;;-141.84;61.48;18614.94;4999574;28;20250;-55
2024/02/01 10:48:43;;;;;;;3.23;1.67;;;8.60;99.90;;;-141.84;62.94;18631.19;4999178;28;20242;-56
2024/02/01 10:51:14;;;;;;;2.03;1.33;;;8.50;99.90;;;-141.84;63.50;18633.22;4966444;28;20218;-51
2024/02/01 10:53:44;;;;;;;3.43;1.73;;;8.30;99.90;;;-141.84;63.31;18667.75;5001604;28;20195;-50
2024/02/01 10:56:15;;;;;;;2.53;1.43;;;8.30;99.90;;;-141.84;61.90;18623.06;4988919;28;20258;-52